sensor_id;sensor_type;location;lat;lon;timestamp;temperature;humidity
31661;DHT22;18267;52.234;7.444;2022-08-21T00:00:24;18.20;99.90
31661;DHT22;18267;52.234;7.444;2022-08-21T00:02:57;18.10;99.90
31661;DHT22;18267;52.234;7.444;2022-08-21T00:05:24;18.20;99.90
31661;DHT22;18267;52.234;7.444;2022-08-21T00:07:50;18.20;99.90
31661;DHT22;18267;52.234;7.444;2022-08-21T00:10:16;18.10;99.90
31661;DHT22;18267;52.234;7.444;2022-08-21T00:12:42;18.20;99.90
31661;DHT22;18267;52.234;7.444;2022-08-21T00:15:10;18.20;99.90
31661;DHT22;18267;52.234;7.444;2022-08-21T00:17:36;18.00;99.90
31661;DHT22;18267;52.234;7.444;2022-08-21T00:20:05;18.00;99.90
31661;DHT22;18267;52.234;7.444;2022-08-21T00:22:31;18.00;99.90
31661;DHT22;18267;52.234;7.444;2022-08-21T00:24:57;18.00;99.90
31661;DHT22;18267;52.234;7.444;2022-08-21T00:27:23;17.90;99.90
31661;DHT22;18267;52.234;7.444;2022-08-21T00:29:48;17.90;99.90
31661;DHT22;18267;52.234;7.444;2022-08-21T00:32:20;17.70;99.90
31661;DHT22;18267;52.234;7.444;2022-08-21T00:34:46;17.70;99.90
31661;DHT22;18267;52.234;7.444;2022-08-21T00:37:11;17.50;99.90
31661;DHT22;18267;52.234;7.444;2022-08-21T00:39:37;17.60;99.90
31661;DHT22;18267;52.234;7.444;2022-08-21T00:42:03;17.50;99.90
31661;DHT22;18267;52.234;7.444;2022-08-21T00:44:29;17.40;99.90
31661;DHT22;18267;52.234;7.444;2022-08-21T00:46:54;17.40;99.90
31661;DHT22;18267;52.234;7.444;2022-08-21T00:49:20;17.20;99.90
31661;DHT22;18267;52.234;7.444;2022-08-21T00:51:55;17.20;99.90
31661;DHT22;18267;52.234;7.444;2022-08-21T00:54:26;17.20;99.90
31661;DHT22;18267;52.234;7.444;2022-08-21T00:56:59;17.30;99.90
31661;DHT22;18267;52.234;7.444;2022-08-21T00:59:25;17.40;99.90
31661;DHT22;18267;52.234;7.444;2022-08-21T01:01:51;17.50;99.90
31661;DHT22;18267;52.234;7.444;2022-08-21T01:04:18;17.60;99.90
31661;DHT22;18267;52.234;7.444;2022-08-21T01:06:44;17.60;99.90
31661;DHT22;18267;52.234;7.444;2022-08-21T01:09:10;17.60;99.90
31661;DHT22;18267;52.234;7.444;2022-08-21T01:11:35;17.50;99.90
31661;DHT22;18267;52.234;7.444;2022-08-21T01:14:02;17.40;99.90
31661;DHT22;18267;52.234;7.444;2022-08-21T01:16:28;17.40;99.90
31661;DHT22;18267;52.234;7.444;2022-08-21T01:18:54;17.40;99.90
31661;DHT22;18267;52.234;7.444;2022-08-21T01:21:25;17.50;99.90
31661;DHT22;18267;52.234;7.444;2022-08-21T01:23:53;17.50;99.90
31661;DHT22;18267;52.234;7.444;2022-08-21T01:26:23;17.60;99.90
31661;DHT22;18267;52.234;7.444;2022-08-21T01:31:41;17.20;99.90
31661;DHT22;18267;52.234;7.444;2022-08-21T01:34:07;16.90;99.90
31661;DHT22;18267;52.234;7.444;2022-08-21T01:36:33;16.80;99.90
31661;DHT22;18267;52.234;7.444;2022-08-21T01:38:59;16.60;99.90
31661;DHT22;18267;52.234;7.444;2022-08-21T01:41:25;16.60;99.90
31661;DHT22;18267;52.234;7.444;2022-08-21T01:43:50;16.70;99.90
31661;DHT22;18267;52.234;7.444;2022-08-21T01:46:16;16.70;99.90
31661;DHT22;18267;52.234;7.444;2022-08-21T01:48:42;16.70;99.90
31661;DHT22;18267;52.234;7.444;2022-08-21T01:51:08;16.70;99.90
31661;DHT22;18267;52.234;7.444;2022-08-21T01:53:35;16.70;99.90
31661;DHT22;18267;52.234;7.444;2022-08-21T01:56:04;16.70;99.90
31661;DHT22;18267;52.234;7.444;2022-08-21T01:58:30;16.80;99.90
31661;DHT22;18267;52.234;7.444;2022-08-21T02:00:55;16.80;99.90
31661;DHT22;18267;52.234;7.444;2022-08-21T02:03:21;16.80;99.90
31661;DHT22;18267;52.234;7.444;2022-08-21T02:05:46;16.90;99.90
31661;DHT22;18267;52.234;7.444;2022-08-21T02:08:12;16.90;99.90
31661;DHT22;18267;52.234;7.444;2022-08-21T02:10:38;16.80;99.90
31661;DHT22;18267;52.234;7.444;2022-08-21T02:13:04;16.90;99.90
31661;DHT22;18267;52.234;7.444;2022-08-21T02:15:30;16.90;99.90
31661;DHT22;18267;52.234;7.444;2022-08-21T02:17:59;16.70;99.90
31661;DHT22;18267;52.234;7.444;2022-08-21T02:20:27;16.60;99.90
31661;DHT22;18267;52.234;7.444;2022-08-21T02:22:53;16.60;99.90
31661;DHT22;18267;52.234;7.444;2022-08-21T02:25:22;16.60;99.90
31661;DHT22;18267;52.234;7.444;2022-08-21T02:27:48;16.60;99.90
31661;DHT22;18267;52.234;7.444;2022-08-21T02:30:34;16.70;99.90
31661;DHT22;18267;52.234;7.444;2022-08-21T02:33:00;16.70;99.90
31661;DHT22;18267;52.234;7.444;2022-08-21T02:35:27;16.60;99.90
31661;DHT22;18267;52.234;7.444;2022-08-21T02:38:01;16.60;99.90
31661;DHT22;18267;52.234;7.444;2022-08-21T02:40:30;16.70;99.90
31661;DHT22;18267;52.234;7.444;2022-08-21T02:42:58;16.70;99.90
31661;DHT22;18267;52.234;7.444;2022-08-21T02:45:27;16.60;99.90
31661;DHT22;18267;52.234;7.444;2022-08-21T02:47:59;16.60;99.90
31661;DHT22;18267;52.234;7.444;2022-08-21T02:50:28;16.50;99.90
31661;DHT22;18267;52.234;7.444;2022-08-21T02:52:54;16.50;99.90
31661;DHT22;18267;52.234;7.444;2022-08-21T02:55:20;16.40;99.90
31661;DHT22;18267;52.234;7.444;2022-08-21T02:57:46;16.30;99.90
31661;DHT22;18267;52.234;7.444;2022-08-21T03:00:13;16.30;99.90
31661;DHT22;18267;52.234;7.444;2022-08-21T03:02:39;16.10;99.90
31661;DHT22;18267;52.234;7.444;2022-08-21T03:05:06;16.10;99.90
31661;DHT22;18267;52.234;7.444;2022-08-21T03:07:32;16.00;99.90
31661;DHT22;18267;52.234;7.444;2022-08-21T03:09:58;15.90;99.90
31661;DHT22;18267;52.234;7.444;2022-08-21T03:12:24;16.00;99.90
31661;DHT22;18267;52.234;7.444;2022-08-21T03:14:49;15.90;99.90
31661;DHT22;18267;52.234;7.444;2022-08-21T03:17:15;16.00;99.90
31661;DHT22;18267;52.234;7.444;2022-08-21T03:19:40;16.00;99.90
31661;DHT22;18267;52.234;7.444;2022-08-21T03:22:06;16.10;99.90
31661;DHT22;18267;52.234;7.444;2022-08-21T03:24:31;16.20;99.90
31661;DHT22;18267;52.234;7.444;2022-08-21T03:26:57;16.20;99.90
31661;DHT22;18267;52.234;7.444;2022-08-21T03:29:23;16.30;99.90
31661;DHT22;18267;52.234;7.444;2022-08-21T03:31:48;16.20;99.90
31661;DHT22;18267;52.234;7.444;2022-08-21T03:34:14;16.20;99.90
31661;DHT22;18267;52.234;7.444;2022-08-21T03:36:39;16.20;99.90
31661;DHT22;18267;52.234;7.444;2022-08-21T03:39:05;16.30;99.90
31661;DHT22;18267;52.234;7.444;2022-08-21T03:41:31;16.20;99.90
31661;DHT22;18267;52.234;7.444;2022-08-21T03:43:56;16.00;99.90
31661;DHT22;18267;52.234;7.444;2022-08-21T03:46:22;16.10;99.90
31661;DHT22;18267;52.234;7.444;2022-08-21T03:48:47;15.90;99.90
31661;DHT22;18267;52.234;7.444;2022-08-21T03:51:13;15.70;99.90
31661;DHT22;18267;52.234;7.444;2022-08-21T03:53:39;15.70;99.90
31661;DHT22;18267;52.234;7.444;2022-08-21T03:56:05;15.70;99.90
31661;DHT22;18267;52.234;7.444;2022-08-21T03:58:31;15.60;99.90
31661;DHT22;18267;52.234;7.444;2022-08-21T04:00:59;15.60;99.90
31661;DHT22;18267;52.234;7.444;2022-08-21T04:03:25;15.60;99.90
31661;DHT22;18267;52.234;7.444;2022-08-21T04:05:51;15.60;99.90
31661;DHT22;18267;52.234;7.444;2022-08-21T04:08:18;15.60;99.90
31661;DHT22;18267;52.234;7.444;2022-08-21T04:10:48;15.80;99.90
31661;DHT22;18267;52.234;7.444;2022-08-21T04:13:14;15.70;99.90
31661;DHT22;18267;52.234;7.444;2022-08-21T04:15:40;15.70;99.90
31661;DHT22;18267;52.234;7.444;2022-08-21T04:18:06;15.50;99.90
31661;DHT22;18267;52.234;7.444;2022-08-21T04:20:32;15.40;99.90
31661;DHT22;18267;52.234;7.444;2022-08-21T04:22:58;15.30;99.90
31661;DHT22;18267;52.234;7.444;2022-08-21T04:25:24;15.30;99.90
31661;DHT22;18267;52.234;7.444;2022-08-21T04:27:51;15.20;99.90
31661;DHT22;18267;52.234;7.444;2022-08-21T04:30:16;15.20;99.90
31661;DHT22;18267;52.234;7.444;2022-08-21T04:32:48;15.20;99.90
31661;DHT22;18267;52.234;7.444;2022-08-21T04:35:14;15.10;99.90
31661;DHT22;18267;52.234;7.444;2022-08-21T04:37:41;15.20;99.90
31661;DHT22;18267;52.234;7.444;2022-08-21T04:40:07;15.20;99.90
31661;DHT22;18267;52.234;7.444;2022-08-21T04:42:45;15.20;99.90
31661;DHT22;18267;52.234;7.444;2022-08-21T04:45:19;15.30;99.90
31661;DHT22;18267;52.234;7.444;2022-08-21T04:47:47;15.30;99.90
31661;DHT22;18267;52.234;7.444;2022-08-21T04:50:13;15.40;99.90
31661;DHT22;18267;52.234;7.444;2022-08-21T04:52:39;15.40;99.90
31661;DHT22;18267;52.234;7.444;2022-08-21T04:55:05;15.50;99.90
31661;DHT22;18267;52.234;7.444;2022-08-21T04:57:31;15.50;99.90
31661;DHT22;18267;52.234;7.444;2022-08-21T04:59:56;15.60;99.90
31661;DHT22;18267;52.234;7.444;2022-08-21T05:02:22;15.60;99.90
31661;DHT22;18267;52.234;7.444;2022-08-21T05:04:50;15.60;99.90
31661;DHT22;18267;52.234;7.444;2022-08-21T05:07:19;15.70;99.90
31661;DHT22;18267;52.234;7.444;2022-08-21T05:09:45;15.50;99.90
31661;DHT22;18267;52.234;7.444;2022-08-21T05:12:12;15.60;99.90
31661;DHT22;18267;52.234;7.444;2022-08-21T05:14:37;15.60;99.90
31661;DHT22;18267;52.234;7.444;2022-08-21T05:17:03;15.70;99.90
31661;DHT22;18267;52.234;7.444;2022-08-21T05:19:29;15.60;99.90
31661;DHT22;18267;52.234;7.444;2022-08-21T05:21:55;15.60;99.90
31661;DHT22;18267;52.234;7.444;2022-08-21T05:24:21;15.80;99.90
31661;DHT22;18267;52.234;7.444;2022-08-21T05:26:46;15.80;99.90
31661;DHT22;18267;52.234;7.444;2022-08-21T05:29:13;15.80;99.90
31661;DHT22;18267;52.234;7.444;2022-08-21T05:31:39;15.70;99.90
31661;DHT22;18267;52.234;7.444;2022-08-21T05:34:04;15.70;99.90
31661;DHT22;18267;52.234;7.444;2022-08-21T05:36:30;15.60;99.90
31661;DHT22;18267;52.234;7.444;2022-08-21T05:38:56;15.60;99.90
31661;DHT22;18267;52.234;7.444;2022-08-21T05:41:21;15.60;99.90
31661;DHT22;18267;52.234;7.444;2022-08-21T05:43:47;15.70;99.90
31661;DHT22;18267;52.234;7.444;2022-08-21T05:46:13;15.70;99.90
31661;DHT22;18267;52.234;7.444;2022-08-21T05:48:39;15.80;99.90
31661;DHT22;18267;52.234;7.444;2022-08-21T05:51:06;15.80;99.90
31661;DHT22;18267;52.234;7.444;2022-08-21T05:53:32;15.90;99.90
31661;DHT22;18267;52.234;7.444;2022-08-21T05:55:58;16.00;99.90
31661;DHT22;18267;52.234;7.444;2022-08-21T05:58:23;16.10;99.90
31661;DHT22;18267;52.234;7.444;2022-08-21T06:00:51;16.20;99.90
31661;DHT22;18267;52.234;7.444;2022-08-21T06:03:26;16.20;99.90
31661;DHT22;18267;52.234;7.444;2022-08-21T06:05:53;16.30;99.90
31661;DHT22;18267;52.234;7.444;2022-08-21T06:08:20;16.40;99.90
31661;DHT22;18267;52.234;7.444;2022-08-21T06:10:47;16.40;99.90
31661;DHT22;18267;52.234;7.444;2022-08-21T06:13:13;16.60;99.90
31661;DHT22;18267;52.234;7.444;2022-08-21T06:15:39;16.70;99.90
31661;DHT22;18267;52.234;7.444;2022-08-21T06:18:05;16.80;99.90
31661;DHT22;18267;52.234;7.444;2022-08-21T06:20:31;16.90;99.90
31661;DHT22;18267;52.234;7.444;2022-08-21T06:22:57;17.00;99.90
31661;DHT22;18267;52.234;7.444;2022-08-21T06:25:23;17.10;99.90
31661;DHT22;18267;52.234;7.444;2022-08-21T06:27:49;17.20;99.90
31661;DHT22;18267;52.234;7.444;2022-08-21T06:30:15;17.20;99.90
31661;DHT22;18267;52.234;7.444;2022-08-21T06:32:41;17.30;99.90
31661;DHT22;18267;52.234;7.444;2022-08-21T06:35:07;17.40;99.90
31661;DHT22;18267;52.234;7.444;2022-08-21T06:37:32;17.40;99.90
31661;DHT22;18267;52.234;7.444;2022-08-21T06:39:58;17.40;99.90
31661;DHT22;18267;52.234;7.444;2022-08-21T06:42:24;17.50;99.90
31661;DHT22;18267;52.234;7.444;2022-08-21T06:44:50;17.60;99.90
31661;DHT22;18267;52.234;7.444;2022-08-21T06:47:16;17.60;99.90
31661;DHT22;18267;52.234;7.444;2022-08-21T06:49:42;17.80;99.90
31661;DHT22;18267;52.234;7.444;2022-08-21T06:52:12;17.80;99.90
31661;DHT22;18267;52.234;7.444;2022-08-21T06:54:38;18.00;99.90
31661;DHT22;18267;52.234;7.444;2022-08-21T06:57:04;18.00;99.90
31661;DHT22;18267;52.234;7.444;2022-08-21T06:59:31;18.10;99.90
31661;DHT22;18267;52.234;7.444;2022-08-21T07:01:58;18.20;99.90
31661;DHT22;18267;52.234;7.444;2022-08-21T07:04:24;18.30;99.90
31661;DHT22;18267;52.234;7.444;2022-08-21T07:06:50;18.40;99.90
31661;DHT22;18267;52.234;7.444;2022-08-21T07:09:16;18.50;99.90
31661;DHT22;18267;52.234;7.444;2022-08-21T07:11:41;18.50;99.90
31661;DHT22;18267;52.234;7.444;2022-08-21T07:14:07;18.60;99.90
31661;DHT22;18267;52.234;7.444;2022-08-21T07:16:33;18.70;99.90
31661;DHT22;18267;52.234;7.444;2022-08-21T07:18:58;18.70;99.90
31661;DHT22;18267;52.234;7.444;2022-08-21T07:21:24;18.80;99.90
31661;DHT22;18267;52.234;7.444;2022-08-21T07:23:51;18.90;99.90
31661;DHT22;18267;52.234;7.444;2022-08-21T07:26:19;18.90;99.90
31661;DHT22;18267;52.234;7.444;2022-08-21T07:28:46;19.00;99.90
31661;DHT22;18267;52.234;7.444;2022-08-21T07:31:15;19.00;99.90
31661;DHT22;18267;52.234;7.444;2022-08-21T07:33:42;19.10;99.90
31661;DHT22;18267;52.234;7.444;2022-08-21T07:36:08;19.20;99.90
31661;DHT22;18267;52.234;7.444;2022-08-21T07:38:34;19.20;99.90
31661;DHT22;18267;52.234;7.444;2022-08-21T07:41:01;19.30;99.90
31661;DHT22;18267;52.234;7.444;2022-08-21T07:43:28;19.40;99.90
31661;DHT22;18267;52.234;7.444;2022-08-21T07:45:54;19.40;99.90
31661;DHT22;18267;52.234;7.444;2022-08-21T07:48:21;19.50;99.90
31661;DHT22;18267;52.234;7.444;2022-08-21T07:50:47;19.60;99.90
31661;DHT22;18267;52.234;7.444;2022-08-21T07:53:13;19.60;99.90
31661;DHT22;18267;52.234;7.444;2022-08-21T07:55:38;19.70;99.90
31661;DHT22;18267;52.234;7.444;2022-08-21T07:58:04;19.70;99.90
31661;DHT22;18267;52.234;7.444;2022-08-21T08:00:29;19.80;99.90
31661;DHT22;18267;52.234;7.444;2022-08-21T08:02:56;19.80;99.90
31661;DHT22;18267;52.234;7.444;2022-08-21T08:05:25;19.80;99.90
31661;DHT22;18267;52.234;7.444;2022-08-21T08:07:51;19.90;99.90
31661;DHT22;18267;52.234;7.444;2022-08-21T08:10:17;19.90;99.90
31661;DHT22;18267;52.234;7.444;2022-08-21T08:12:44;20.00;99.90
31661;DHT22;18267;52.234;7.444;2022-08-21T08:15:17;20.00;99.90
31661;DHT22;18267;52.234;7.444;2022-08-21T08:17:43;20.00;99.90
31661;DHT22;18267;52.234;7.444;2022-08-21T08:20:10;20.00;99.90
31661;DHT22;18267;52.234;7.444;2022-08-21T08:22:38;20.10;99.90
31661;DHT22;18267;52.234;7.444;2022-08-21T08:25:05;20.10;99.90
31661;DHT22;18267;52.234;7.444;2022-08-21T08:27:31;20.20;99.90
31661;DHT22;18267;52.234;7.444;2022-08-21T08:29:57;20.20;99.90
31661;DHT22;18267;52.234;7.444;2022-08-21T08:32:23;20.30;99.90
31661;DHT22;18267;52.234;7.444;2022-08-21T08:34:49;20.40;99.90
31661;DHT22;18267;52.234;7.444;2022-08-21T08:37:18;20.50;99.90
31661;DHT22;18267;52.234;7.444;2022-08-21T08:39:44;20.50;99.90
31661;DHT22;18267;52.234;7.444;2022-08-21T08:42:15;20.60;99.90
31661;DHT22;18267;52.234;7.444;2022-08-21T08:44:43;20.60;99.90
31661;DHT22;18267;52.234;7.444;2022-08-21T08:47:16;20.60;99.90
31661;DHT22;18267;52.234;7.444;2022-08-21T08:49:49;20.80;99.90
31661;DHT22;18267;52.234;7.444;2022-08-21T08:52:36;20.90;99.90
31661;DHT22;18267;52.234;7.444;2022-08-21T08:55:24;21.20;99.90
31661;DHT22;18267;52.234;7.444;2022-08-21T08:57:51;21.30;99.90
31661;DHT22;18267;52.234;7.444;2022-08-21T09:00:21;21.60;99.90
31661;DHT22;18267;52.234;7.444;2022-08-21T09:02:48;21.70;99.90
31661;DHT22;18267;52.234;7.444;2022-08-21T09:05:45;21.80;99.90
31661;DHT22;18267;52.234;7.444;2022-08-21T09:11:15;21.90;99.90
31661;DHT22;18267;52.234;7.444;2022-08-21T09:19:49;21.90;99.90
31661;DHT22;18267;52.234;7.444;2022-08-21T09:22:29;21.90;99.90
31661;DHT22;18267;52.234;7.444;2022-08-21T09:25:11;21.80;99.90
31661;DHT22;18267;52.234;7.444;2022-08-21T09:27:37;21.80;99.90
31661;DHT22;18267;52.234;7.444;2022-08-21T09:30:05;21.80;99.90
31661;DHT22;18267;52.234;7.444;2022-08-21T09:32:32;21.90;99.90
31661;DHT22;18267;52.234;7.444;2022-08-21T09:37:32;22.00;99.90
31661;DHT22;18267;52.234;7.444;2022-08-21T09:40:00;22.10;99.90
31661;DHT22;18267;52.234;7.444;2022-08-21T09:42:31;22.00;99.90
31661;DHT22;18267;52.234;7.444;2022-08-21T09:45:11;22.00;99.90
31661;DHT22;18267;52.234;7.444;2022-08-21T09:47:40;22.00;99.90
31661;DHT22;18267;52.234;7.444;2022-08-21T09:50:14;22.00;99.90
31661;DHT22;18267;52.234;7.444;2022-08-21T09:52:51;22.00;99.90
31661;DHT22;18267;52.234;7.444;2022-08-21T09:55:32;22.00;99.90
31661;DHT22;18267;52.234;7.444;2022-08-21T09:58:17;22.00;99.90
31661;DHT22;18267;52.234;7.444;2022-08-21T10:00:44;22.00;99.90
31661;DHT22;18267;52.234;7.444;2022-08-21T10:03:19;21.90;99.90
31661;DHT22;18267;52.234;7.444;2022-08-21T10:06:03;22.00;99.90
31661;DHT22;18267;52.234;7.444;2022-08-21T10:08:36;22.00;99.90
31661;DHT22;18267;52.234;7.444;2022-08-21T10:11:23;22.00;99.90
31661;DHT22;18267;52.234;7.444;2022-08-21T10:14:06;22.00;99.90
31661;DHT22;18267;52.234;7.444;2022-08-21T10:19:50;22.00;99.90
31661;DHT22;18267;52.234;7.444;2022-08-21T10:25:06;21.90;99.90
31661;DHT22;18267;52.234;7.444;2022-08-21T10:33:14;22.00;99.90
31661;DHT22;18267;52.234;7.444;2022-08-21T10:46:53;22.20;99.90
31661;DHT22;18267;52.234;7.444;2022-08-21T10:52:29;22.30;98.90
31661;DHT22;18267;52.234;7.444;2022-08-21T10:55:08;22.30;99.20
31661;DHT22;18267;52.234;7.444;2022-08-21T11:00:43;22.30;98.00
31661;DHT22;18267;52.234;7.444;2022-08-21T11:03:16;22.30;98.20
31661;DHT22;18267;52.234;7.444;2022-08-21T11:05:52;22.30;97.60
31661;DHT22;18267;52.234;7.444;2022-08-21T11:08:26;22.30;97.70
31661;DHT22;18267;52.234;7.444;2022-08-21T11:11:00;22.20;98.00
31661;DHT22;18267;52.234;7.444;2022-08-21T11:13:45;22.30;98.50
31661;DHT22;18267;52.234;7.444;2022-08-21T11:16:23;22.30;97.00
31661;DHT22;18267;52.234;7.444;2022-08-21T11:18:58;22.30;97.60
31661;DHT22;18267;52.234;7.444;2022-08-21T11:21:32;22.30;96.80
31661;DHT22;18267;52.234;7.444;2022-08-21T11:29:24;22.40;96.40
31661;DHT22;18267;52.234;7.444;2022-08-21T11:35:02;22.50;97.70
31661;DHT22;18267;52.234;7.444;2022-08-21T11:45:50;22.80;95.90
31661;DHT22;18267;52.234;7.444;2022-08-21T11:48:22;22.80;95.60
31661;DHT22;18267;52.234;7.444;2022-08-21T11:50:58;22.90;95.70
31661;DHT22;18267;52.234;7.444;2022-08-21T11:53:32;22.90;95.40
31661;DHT22;18267;52.234;7.444;2022-08-21T11:58:38;23.00;95.80
31661;DHT22;18267;52.234;7.444;2022-08-21T12:01:08;23.10;95.50
31661;DHT22;18267;52.234;7.444;2022-08-21T12:06:41;23.10;94.90
31661;DHT22;18267;52.234;7.444;2022-08-21T12:09:34;23.10;94.80
31661;DHT22;18267;52.234;7.444;2022-08-21T12:12:02;23.10;94.60
31661;DHT22;18267;52.234;7.444;2022-08-21T12:17:06;23.10;94.10
31661;DHT22;18267;52.234;7.444;2022-08-21T12:19:32;23.10;94.70
31661;DHT22;18267;52.234;7.444;2022-08-21T12:27:13;23.00;94.60
31661;DHT22;18267;52.234;7.444;2022-08-21T12:29:52;23.00;94.80
31661;DHT22;18267;52.234;7.444;2022-08-21T12:32:22;23.10;94.10
31661;DHT22;18267;52.234;7.444;2022-08-21T12:37:56;23.30;94.50
31661;DHT22;18267;52.234;7.444;2022-08-21T12:40:25;23.30;94.20
31661;DHT22;18267;52.234;7.444;2022-08-21T12:42:55;23.20;94.10
31661;DHT22;18267;52.234;7.444;2022-08-21T12:48:12;23.10;94.90
31661;DHT22;18267;52.234;7.444;2022-08-21T12:50:54;23.20;94.80
31661;DHT22;18267;52.234;7.444;2022-08-21T12:53:36;23.10;95.00
31661;DHT22;18267;52.234;7.444;2022-08-21T12:56:09;23.10;95.50
31661;DHT22;18267;52.234;7.444;2022-08-21T12:58:35;23.10;94.80
31661;DHT22;18267;52.234;7.444;2022-08-21T13:01:07;23.10;94.90
31661;DHT22;18267;52.234;7.444;2022-08-21T13:03:35;23.20;94.50
31661;DHT22;18267;52.234;7.444;2022-08-21T13:06:03;23.10;94.00
31661;DHT22;18267;52.234;7.444;2022-08-21T13:08:30;23.20;95.30
31661;DHT22;18267;52.234;7.444;2022-08-21T13:11:04;23.20;94.30
31661;DHT22;18267;52.234;7.444;2022-08-21T13:13:30;23.20;94.20
31661;DHT22;18267;52.234;7.444;2022-08-21T13:16:02;23.30;93.90
31661;DHT22;18267;52.234;7.444;2022-08-21T13:18:30;23.20;94.10
31661;DHT22;18267;52.234;7.444;2022-08-21T13:21:14;23.30;94.80
31661;DHT22;18267;52.234;7.444;2022-08-21T13:23:40;23.40;94.00
31661;DHT22;18267;52.234;7.444;2022-08-21T13:26:19;23.40;94.20
31661;DHT22;18267;52.234;7.444;2022-08-21T13:28:45;23.50;94.10
31661;DHT22;18267;52.234;7.444;2022-08-21T13:31:17;23.50;93.80
31661;DHT22;18267;52.234;7.444;2022-08-21T13:33:44;23.40;94.00
31661;DHT22;18267;52.234;7.444;2022-08-21T13:36:25;23.50;93.70
31661;DHT22;18267;52.234;7.444;2022-08-21T13:38:53;23.50;93.90
31661;DHT22;18267;52.234;7.444;2022-08-21T13:41:22;23.50;93.40
31661;DHT22;18267;52.234;7.444;2022-08-21T13:43:56;23.60;93.70
31661;DHT22;18267;52.234;7.444;2022-08-21T13:46:24;23.70;93.20
31661;DHT22;18267;52.234;7.444;2022-08-21T13:48:52;23.70;92.90
31661;DHT22;18267;52.234;7.444;2022-08-21T13:51:18;23.70;92.80
31661;DHT22;18267;52.234;7.444;2022-08-21T13:53:48;23.70;93.50
31661;DHT22;18267;52.234;7.444;2022-08-21T13:56:40;23.80;93.60
31661;DHT22;18267;52.234;7.444;2022-08-21T13:59:06;23.80;92.40
31661;DHT22;18267;52.234;7.444;2022-08-21T14:01:50;23.80;93.10
31661;DHT22;18267;52.234;7.444;2022-08-21T14:04:23;23.80;93.20
31661;DHT22;18267;52.234;7.444;2022-08-21T14:06:50;23.90;93.40
31661;DHT22;18267;52.234;7.444;2022-08-21T14:09:33;23.90;92.80
31661;DHT22;18267;52.234;7.444;2022-08-21T14:12:37;24.10;93.60
31661;DHT22;18267;52.234;7.444;2022-08-21T14:15:02;24.20;92.90
31661;DHT22;18267;52.234;7.444;2022-08-21T14:17:34;24.30;92.60
31661;DHT22;18267;52.234;7.444;2022-08-21T14:20:04;24.30;92.20
31661;DHT22;18267;52.234;7.444;2022-08-21T14:22:45;24.30;92.20
31661;DHT22;18267;52.234;7.444;2022-08-21T14:25:58;24.30;92.10
31661;DHT22;18267;52.234;7.444;2022-08-21T14:28:22;24.30;91.70
31661;DHT22;18267;52.234;7.444;2022-08-21T14:30:50;24.30;92.40
31661;DHT22;18267;52.234;7.444;2022-08-21T14:33:34;24.20;91.80
31661;DHT22;18267;52.234;7.444;2022-08-21T14:36:00;24.20;91.90
31661;DHT22;18267;52.234;7.444;2022-08-21T14:38:28;24.10;91.60
31661;DHT22;18267;52.234;7.444;2022-08-21T14:41:04;24.00;91.80
31661;DHT22;18267;52.234;7.444;2022-08-21T14:43:32;23.90;91.90
31661;DHT22;18267;52.234;7.444;2022-08-21T14:45:58;23.80;92.00
31661;DHT22;18267;52.234;7.444;2022-08-21T14:48:25;23.80;92.40
31661;DHT22;18267;52.234;7.444;2022-08-21T14:50:51;23.90;92.20
31661;DHT22;18267;52.234;7.444;2022-08-21T14:53:17;24.00;91.20
31661;DHT22;18267;52.234;7.444;2022-08-21T14:55:42;24.00;91.50
31661;DHT22;18267;52.234;7.444;2022-08-21T14:58:27;24.10;92.10
31661;DHT22;18267;52.234;7.444;2022-08-21T15:00:54;24.20;91.90
31661;DHT22;18267;52.234;7.444;2022-08-21T15:03:21;24.10;91.10
31661;DHT22;18267;52.234;7.444;2022-08-21T15:05:50;24.00;91.20
31661;DHT22;18267;52.234;7.444;2022-08-21T15:08:16;24.00;90.90
31661;DHT22;18267;52.234;7.444;2022-08-21T15:10:42;24.00;91.00
31661;DHT22;18267;52.234;7.444;2022-08-21T15:13:08;23.90;91.20
31661;DHT22;18267;52.234;7.444;2022-08-21T15:15:39;23.90;91.20
31661;DHT22;18267;52.234;7.444;2022-08-21T15:18:05;23.90;91.60
31661;DHT22;18267;52.234;7.444;2022-08-21T15:20:31;23.90;92.40
31661;DHT22;18267;52.234;7.444;2022-08-21T15:22:57;23.90;92.40
31661;DHT22;18267;52.234;7.444;2022-08-21T15:25:23;23.90;92.00
31661;DHT22;18267;52.234;7.444;2022-08-21T15:27:48;23.90;91.50
31661;DHT22;18267;52.234;7.444;2022-08-21T15:30:14;23.90;91.60
31661;DHT22;18267;52.234;7.444;2022-08-21T15:32:40;23.90;91.70
31661;DHT22;18267;52.234;7.444;2022-08-21T15:35:07;23.80;91.70
31661;DHT22;18267;52.234;7.444;2022-08-21T15:37:33;23.80;91.80
31661;DHT22;18267;52.234;7.444;2022-08-21T15:39:59;23.80;91.50
31661;DHT22;18267;52.234;7.444;2022-08-21T15:42:25;23.80;91.70
31661;DHT22;18267;52.234;7.444;2022-08-21T15:44:54;23.80;92.40
31661;DHT22;18267;52.234;7.444;2022-08-21T15:47:33;23.80;92.50
31661;DHT22;18267;52.234;7.444;2022-08-21T15:50:00;23.80;92.60
31661;DHT22;18267;52.234;7.444;2022-08-21T15:52:26;23.80;92.90
31661;DHT22;18267;52.234;7.444;2022-08-21T15:54:51;23.80;93.20
31661;DHT22;18267;52.234;7.444;2022-08-21T15:57:20;23.80;93.20
31661;DHT22;18267;52.234;7.444;2022-08-21T15:59:53;23.90;93.80
31661;DHT22;18267;52.234;7.444;2022-08-21T16:02:26;23.90;93.80
31661;DHT22;18267;52.234;7.444;2022-08-21T16:04:52;23.90;93.60
31661;DHT22;18267;52.234;7.444;2022-08-21T16:07:18;24.00;93.50
31661;DHT22;18267;52.234;7.444;2022-08-21T16:09:44;23.90;93.20
31661;DHT22;18267;52.234;7.444;2022-08-21T16:12:12;24.00;93.10
31661;DHT22;18267;52.234;7.444;2022-08-21T16:14:40;23.90;92.10
31661;DHT22;18267;52.234;7.444;2022-08-21T16:17:07;23.90;93.00
31661;DHT22;18267;52.234;7.444;2022-08-21T16:19:33;23.90;92.80
31661;DHT22;18267;52.234;7.444;2022-08-21T16:21:59;23.90;92.80
31661;DHT22;18267;52.234;7.444;2022-08-21T16:24:24;24.00;93.00
31661;DHT22;18267;52.234;7.444;2022-08-21T16:26:50;24.00;92.60
31661;DHT22;18267;52.234;7.444;2022-08-21T16:29:17;24.00;92.90
31661;DHT22;18267;52.234;7.444;2022-08-21T16:31:43;23.90;93.20
31661;DHT22;18267;52.234;7.444;2022-08-21T16:34:12;24.00;92.40
31661;DHT22;18267;52.234;7.444;2022-08-21T16:36:40;24.00;92.70
31661;DHT22;18267;52.234;7.444;2022-08-21T16:39:05;24.00;93.20
31661;DHT22;18267;52.234;7.444;2022-08-21T16:41:33;23.90;93.20
31661;DHT22;18267;52.234;7.444;2022-08-21T16:44:00;23.90;93.30
31661;DHT22;18267;52.234;7.444;2022-08-21T16:46:27;23.90;93.30
31661;DHT22;18267;52.234;7.444;2022-08-21T16:48:53;23.90;93.20
31661;DHT22;18267;52.234;7.444;2022-08-21T16:51:19;23.80;93.00
31661;DHT22;18267;52.234;7.444;2022-08-21T16:53:44;23.80;93.20
31661;DHT22;18267;52.234;7.444;2022-08-21T16:56:13;23.80;93.00
31661;DHT22;18267;52.234;7.444;2022-08-21T16:58:41;23.70;93.20